Time,TemperatureF,DewpointF,PressureIn,WindDirection,WindDirectionDegrees,WindSpeedMPH,WindSpeedGustMPH,Humidity,HourlyPrecipIn,Conditions,Clouds,dailyrainin,SoftwareType,DateUTC
2013-12-04 00:03:00,43.4,43.4,29.53,SW,222,3.0,6.0,100,0.00,FEW,FEW,0.00,WeatherDisplay:10.37,2013-12-04 06:03:00,
2013-12-04 00:09:00,43.4,43.4,29.53,WNW,289,2.0,6.0,100,0.00,FEW,FEW,0.00,WeatherDisplay:10.37,2013-12-04 06:09:00,
2013-12-04 00:15:00,43.2,43.2,29.55,WNW,298,1.0,5.0,100,0.00,FEW,FEW,0.00,WeatherDisplay:10.37,2013-12-04 06:15:00,
2013-12-04 00:21:00,42.8,42.8,29.55,WNW,297,0.0,4.0,100,0.00,FEW,FEW,0.00,WeatherDisplay:10.37,2013-12-04 06:21:00,
2013-12-04 00:27:00,42.8,42.8,29.55,WNW,291,0.0,3.0,100,0.00,FEW,FEW,0.00,WeatherDisplay:10.37,2013-12-04 06:27:00,
2013-12-04 00:33:00,42.2,42.2,29.55,WNW,298,1.0,6.0,100,0.00,BKN,BKN,0.00,WeatherDisplay:10.37,2013-12-04 06:33:00,
2013-12-04 00:39:00,41.9,41.9,29.55,WNW,297,3.0,4.0,100,0.00,BKN,BKN,0.00,WeatherDisplay:10.37,2013-12-04 06:39:00,
2013-12-04 00:45:00,41.5,41.5,29.55,WNW,296,5.0,6.0,100,0.00,BKN,BKN,0.00,WeatherDisplay:10.37,2013-12-04 06:45:00,
2013-12-04 00:51:00,41.4,41.4,29.54,WNW,300,2.0,3.0,100,0.00,BKN,BKN,0.00,WeatherDisplay:10.37,2013-12-04 06:51:00,
2013-12-04 00:57:00,41.4,41.4,29.54,WNW,300,2.0,7.0,100,0.00,BKN,BKN,0.00,WeatherDisplay:10.37,2013-12-04 06:57:00,
2013-12-04 01:03:00,41.6,41.6,29.55,North,354,2.0,7.0,100,0.00,,,0.00,WeatherDisplay:10.37,2013-12-04 07:03:00,
2013-12-04 01:09:00,41.8,41.8,29.55,North,8,3.0,6.0,100,0.00,,,0.00,WeatherDisplay:10.37,2013-12-04 07:09:00,
2013-12-04 01:15:00,41.9,41.9,29.53,NE,34,5.0,7.0,100,0.00,,,0.00,WeatherDisplay:10.37,2013-12-04 07:15:00,
2013-12-04 01:21:00,42.1,42.1,29.53,NNE,27,2.0,7.0,100,0.00,,,0.00,WeatherDisplay:10.37,2013-12-04 07:21:00,
2013-12-04 01:27:00,42.1,42.1,29.53,NW,320,5.0,6.0,100,0.00,,,0.00,WeatherDisplay:10.37,2013-12-04 07:27:00,
2013-12-04 01:33:00,42.1,42.1,29.53,NW,324,3.0,6.0,100,0.00,,,0.00,WeatherDisplay:10.37,2013-12-04 07:33:00,
2013-12-04 01:39:00,42.1,42.1,29.52,NNW,341,3.0,6.0,100,0.00,,,0.00,WeatherDisplay:10.37,2013-12-04 07:39:00,
2013-12-04 01:45:00,42.1,42.1,29.52,NNW,338,0.0,0.0,100,0.00,,,0.00,WeatherDisplay:10.37,2013-12-04 07:45:00,
2013-12-04 01:51:00,42.1,42.1,29.53,WNW,299,0.0,0.0,100,0.00,,,0.00,WeatherDisplay:10.37,2013-12-04 07:51:00,
2013-12-04 01:57:00,42.1,42.1,29.53,WNW,297,0.0,2.0,100,0.00,,,0.00,WeatherDisplay:10.37,2013-12-04 07:57:00,
2013-12-04 02:03:00,42.1,42.1,29.53,WSW,246,3.0,5.0,100,0.00,,,0.00,WeatherDisplay:10.37,2013-12-04 08:03:00,
2013-12-04 02:09:00,42.1,42.1,29.53,NW,312,5.0,7.0,100,0.00,,,0.00,WeatherDisplay:10.37,2013-12-04 08:09:00,
2013-12-04 02:15:00,42.1,42.1,29.53,WNW,300,1.0,4.0,100,0.00,,,0.00,WeatherDisplay:10.37,2013-12-04 08:15:00,
2013-12-04 02:21:00,41.8,41.8,29.53,NNE,17,5.0,6.0,100,0.00,,,0.00,WeatherDisplay:10.37,2013-12-04 08:21:00,
2013-12-04 02:27:00,41.4,41.4,29.53,NNW,342,5.0,7.0,100,0.00,,,0.00,WeatherDisplay:10.37,2013-12-04 08:27:00,
2013-12-04 02:33:00,41.2,41.2,29.53,North,352,6.0,8.0,100,0.00,,,0.00,WeatherDisplay:10.37,2013-12-04 08:33:00,
2013-12-04 02:39:00,41.0,41.0,29.53,NNW,338,6.0,7.0,100,0.00,,,0.00,WeatherDisplay:10.37,2013-12-04 08:39:00,
2013-12-04 02:45:00,40.9,40.9,29.53,ENE,59,6.0,13.0,100,0.00,,,0.00,WeatherDisplay:10.37,2013-12-04 08:45:00,
2013-12-04 02:51:00,40.9,40.9,29.53,NE,48,9.0,18.0,100,0.00,,,0.00,WeatherDisplay:10.37,2013-12-04 08:51:00,
2013-12-04 02:57:00,40.7,40.7,29.53,East,89,3.0,7.0,100,0.00,,,0.00,WeatherDisplay:10.37,2013-12-04 08:57:00,
2013-12-04 03:03:00,40.7,39.9,29.54,NNE,26,5.0,9.0,97,0.00,,,0.00,WeatherDisplay:10.37,2013-12-04 09:03:00,
2013-12-04 03:09:00,40.7,39.6,29.54,NNW,342,5.0,6.0,96,0.00,,,0.00,WeatherDisplay:10.37,2013-12-04 09:09:00,
2013-12-04 03:15:00,40.5,39.4,29.54,NNW,345,5.0,8.0,96,0.00,,,0.00,WeatherDisplay:10.37,2013-12-04 09:15:00,
2013-12-04 03:21:00,40.3,38.4,29.54,NNW,334,7.0,10.0,93,0.00,,,0.00,WeatherDisplay:10.37,2013-12-04 09:21:00,
2013-12-04 03:27:00,40.1,37.9,29.55,NW,308,6.0,8.0,92,0.00,,,0.00,WeatherDisplay:10.37,2013-12-04 09:27:00,
2013-12-04 03:33:00,40.1,37.9,29.55,WNW,295,7.0,8.0,92,0.00,,,0.00,WeatherDisplay:10.37,2013-12-04 09:33:00,
2013-12-04 03:39:00,39.8,37.6,29.54,NNW,337,6.0,12.0,92,0.00,,,0.00,WeatherDisplay:10.37,2013-12-04 09:39:00,
2013-12-04 03:45:00,39.3,36.9,29.54,NW,324,7.0,15.0,91,0.00,,,0.00,WeatherDisplay:10.37,2013-12-04 09:45:00,
2013-12-04 03:51:00,39.1,36.7,29.55,WNW,295,7.0,10.0,91,0.00,,,0.00,WeatherDisplay:10.37,2013-12-04 09:51:00,
2013-12-04 03:57:00,38.7,36.5,29.55,WNW,291,8.0,10.0,92,0.00,,,0.00,WeatherDisplay:10.37,2013-12-04 09:57:00,
2013-12-04 04:03:00,37.8,36.0,29.56,WNW,300,12.0,17.0,93,0.00,,,0.00,WeatherDisplay:10.37,2013-12-04 10:03:00,
2013-12-04 04:09:00,36.9,35.9,29.56,WNW,300,10.0,14.0,96,0.00,,,0.00,WeatherDisplay:10.37,2013-12-04 10:09:00,
2013-12-04 04:15:00,36.6,35.8,29.57,WNW,298,12.0,18.0,97,0.00,,,0.00,WeatherDisplay:10.37,2013-12-04 10:15:00,
2013-12-04 04:21:00,36.4,35.6,29.57,West,281,10.0,18.0,97,0.00,,,0.00,WeatherDisplay:10.37,2013-12-04 10:21:00,
2013-12-04 04:27:00,36.0,36.0,29.58,NW,304,8.0,14.0,100,0.00,,,0.00,WeatherDisplay:10.37,2013-12-04 10:27:00,
2013-12-04 04:33:00,35.8,35.8,29.58,WNW,292,12.0,17.0,100,0.00,,,0.00,WeatherDisplay:10.37,2013-12-04 10:33:00,
2013-12-04 04:39:00,35.6,35.6,29.60,NW,307,10.0,17.0,100,0.00,,,0.00,WeatherDisplay:10.37,2013-12-04 10:39:00,
2013-12-04 04:45:00,35.6,35.6,29.60,NNW,331,9.0,13.0,100,0.00,,,0.00,WeatherDisplay:10.37,2013-12-04 10:45:00,
2013-12-04 04:51:00,35.6,35.6,29.60,NNW,336,6.0,8.0,100,0.00,,,0.00,WeatherDisplay:10.37,2013-12-04 10:51:00,
2013-12-04 04:57:00,35.6,35.6,29.60,NW,308,8.0,15.0,100,0.00,,,0.00,WeatherDisplay:10.37,2013-12-04 10:57:00,
2013-12-04 05:03:00,35.6,35.6,29.60,NW,317,12.0,16.0,100,0.00,OVC,OVC,0.00,WeatherDisplay:10.37,2013-12-04 11:03:00,
2013-12-04 05:09:00,35.6,35.6,29.60,NW,320,8.0,12.0,100,0.00,OVC,OVC,0.00,WeatherDisplay:10.37,2013-12-04 11:09:00,
2013-12-04 05:15:00,35.6,35.6,29.61,NW,307,10.0,21.0,100,0.00,OVC,OVC,0.00,WeatherDisplay:10.37,2013-12-04 11:15:00,
2013-12-04 05:21:00,34.4,33.9,29.61,NW,311,10.0,22.0,98,0.00,OVC,OVC,0.00,WeatherDisplay:10.37,2013-12-04 11:21:00,
2013-12-04 05:27:00,33.5,32.7,29.62,NW,307,10.0,20.0,97,0.00,OVC,OVC,0.00,WeatherDisplay:10.37,2013-12-04 11:27:00,
2013-12-04 05:33:00,32.8,31.7,29.62,WNW,283,10.0,15.0,96,0.00,OVC,OVC,0.00,WeatherDisplay:10.37,2013-12-04 11:33:00,
2013-12-04 05:39:00,32.4,31.3,29.62,WNW,292,13.0,19.0,96,0.00,OVC,OVC,0.00,WeatherDisplay:10.37,2013-12-04 11:39:00,
2013-12-04 05:45:00,32.2,31.1,29.62,WNW,289,10.0,13.0,96,0.00,OVC,OVC,0.00,WeatherDisplay:10.37,2013-12-04 11:45:00,
2013-12-04 05:51:00,31.9,30.9,29.64,NW,304,12.0,15.0,96,0.00,OVC,OVC,0.00,WeatherDisplay:10.37,2013-12-04 11:51:00,
2013-12-04 05:57:00,31.5,30.5,29.64,WNW,293,10.0,16.0,96,0.00,OVC,OVC,0.00,WeatherDisplay:10.37,2013-12-04 11:57:00,
2013-12-04 06:03:00,31.5,30.5,29.64,NW,305,12.0,14.0,96,0.00,OVC,OVC,0.00,WeatherDisplay:10.37,2013-12-04 12:03:00,
2013-12-04 06:09:00,31.5,30.7,29.64,WNW,303,10.0,26.0,97,0.00,OVC,OVC,0.00,WeatherDisplay:10.37,2013-12-04 12:09:00,
2013-12-04 06:15:00,31.1,30.3,29.64,WNW,300,13.0,20.0,97,0.00,OVC,OVC,0.00,WeatherDisplay:10.37,2013-12-04 12:15:00,
2013-12-04 06:21:00,31.0,30.0,29.64,NW,309,13.0,14.0,96,0.00,OVC,OVC,0.00,WeatherDisplay:10.37,2013-12-04 12:21:00,
2013-12-04 06:27:00,31.0,29.7,29.64,WNW,299,12.0,14.0,95,0.00,OVC,OVC,0.00,WeatherDisplay:10.37,2013-12-04 12:27:00,
2013-12-04 06:33:00,30.8,29.8,29.64,WNW,300,7.0,24.0,96,0.00,OVC,OVC,0.00,WeatherDisplay:10.37,2013-12-04 12:33:00,
2013-12-04 06:39:00,30.6,29.6,29.65,WNW,285,16.0,21.0,96,0.00,OVC,OVC,0.00,WeatherDisplay:10.37,2013-12-04 12:39:00,
2013-12-04 06:45:00,30.4,29.1,29.65,WNW,284,9.0,15.0,95,0.00,OVC,OVC,0.00,WeatherDisplay:10.37,2013-12-04 12:45:00,
2013-12-04 06:51:00,30.4,29.1,29.66,WNW,299,15.0,29.0,95,0.00,OVC,OVC,0.00,WeatherDisplay:10.37,2013-12-04 12:51:00,
2013-12-04 06:57:00,30.2,28.9,29.66,WNW,302,9.0,21.0,95,0.00,OVC,OVC,0.00,WeatherDisplay:10.37,2013-12-04 12:57:00,
2013-12-04 07:03:00,30.1,28.8,29.67,WNW,301,9.0,14.0,95,0.00,OVC,OVC,0.00,WeatherDisplay:10.37,2013-12-04 13:03:00,
2013-12-04 07:09:00,29.9,28.6,29.67,NW,304,12.0,17.0,95,0.00,OVC,OVC,0.00,WeatherDisplay:10.37,2013-12-04 13:09:00,
2013-12-04 07:15:00,29.5,28.0,29.67,NW,305,14.0,18.0,94,0.00,OVC,OVC,0.00,WeatherDisplay:10.37,2013-12-04 13:15:00,
2013-12-04 07:21:00,29.3,27.5,29.67,WNW,295,13.0,17.0,93,0.00,OVC,OVC,0.00,WeatherDisplay:10.37,2013-12-04 13:21:00,
2013-12-04 07:27:00,29.2,26.9,29.68,WNW,289,13.0,18.0,91,0.00,OVC,OVC,0.00,WeatherDisplay:10.37,2013-12-04 13:27:00,
2013-12-04 07:33:00,29.0,26.7,29.68,WNW,303,9.0,14.0,91,0.00,OVC,OVC,0.00,WeatherDisplay:10.37,2013-12-04 13:33:00,
2013-12-04 07:39:00,29.0,26.7,29.67,NW,313,8.0,18.0,91,0.00,OVC,OVC,0.00,WeatherDisplay:10.37,2013-12-04 13:39:00,
2013-12-04 07:45:00,29.0,26.9,29.67,NW,310,10.0,21.0,92,0.00,OVC,OVC,0.00,WeatherDisplay:10.37,2013-12-04 13:45:00,
2013-12-04 07:51:00,28.6,26.3,29.68,WNW,297,10.0,15.0,91,0.00,OVC,OVC,0.00,WeatherDisplay:10.37,2013-12-04 13:51:00,
2013-12-04 07:57:00,28.6,26.3,29.68,SE,135,15.0,15.0,91,0.00,OVC,OVC,0.00,WeatherDisplay:10.37,2013-12-04 13:57:00,
2013-12-04 08:03:00,28.6,26.3,29.68,SE,135,15.0,15.0,91,0.00,OVC,OVC,0.00,WeatherDisplay:10.37,2013-12-04 14:03:00,
2013-12-04 08:09:00,28.4,25.8,29.69,NW,311,10.0,14.0,90,0.00,OVC,OVC,0.00,WeatherDisplay:10.37,2013-12-04 14:09:00,
2013-12-04 08:15:00,28.3,26.0,29.69,WNW,300,9.0,14.0,91,0.00,OVC,OVC,0.00,WeatherDisplay:10.37,2013-12-04 14:15:00,
2013-12-04 08:21:00,28.3,26.0,29.69,NW,308,13.0,16.0,91,0.00,OVC,OVC,0.00,WeatherDisplay:10.37,2013-12-04 14:21:00,
2013-12-04 08:27:00,28.3,25.7,29.70,WNW,299,13.0,14.0,90,0.00,OVC,OVC,0.00,WeatherDisplay:10.37,2013-12-04 14:27:00,
2013-12-04 08:33:00,28.3,25.2,29.70,WNW,300,10.0,14.0,88,0.00,OVC,OVC,0.00,WeatherDisplay:10.37,2013-12-04 14:33:00,
2013-12-04 08:39:00,28.1,25.2,29.71,NW,306,9.0,17.0,89,0.00,OVC,OVC,0.00,WeatherDisplay:10.37,2013-12-04 14:39:00,
2013-12-04 08:45:00,27.9,25.0,29.71,WNW,289,13.0,21.0,89,0.00,OVC,OVC,0.00,WeatherDisplay:10.37,2013-12-04 14:45:00,
2013-12-04 08:51:00,27.9,25.0,29.71,WNW,300,9.0,12.0,89,0.00,OVC,OVC,0.00,WeatherDisplay:10.37,2013-12-04 14:51:00,
2013-12-04 08:57:00,28.1,25.0,29.71,NW,312,8.0,13.0,88,0.00,OVC,OVC,0.00,WeatherDisplay:10.37,2013-12-04 14:57:00,
2013-12-04 09:03:00,28.1,24.7,29.72,NW,321,8.0,18.0,87,0.00,OVC,OVC,0.00,WeatherDisplay:10.37,2013-12-04 15:03:00,
2013-12-04 09:09:00,28.1,24.7,29.72,NNW,336,12.0,18.0,87,0.00,OVC,OVC,0.00,WeatherDisplay:10.37,2013-12-04 15:09:00,
2013-12-04 09:15:00,27.9,24.5,29.72,NW,312,7.0,14.0,87,0.00,OVC,OVC,0.00,WeatherDisplay:10.37,2013-12-04 15:15:00,
2013-12-04 09:21:00,27.9,24.5,29.72,NW,314,10.0,21.0,87,0.00,OVC,OVC,0.00,WeatherDisplay:10.37,2013-12-04 15:21:00,
2013-12-04 09:27:00,27.7,24.0,29.73,NW,311,14.0,17.0,86,0.00,OVC,OVC,0.00,WeatherDisplay:10.37,2013-12-04 15:27:00,
2013-12-04 09:33:00,27.9,24.2,29.73,NW,323,10.0,15.0,86,0.00,OVC,OVC,0.00,WeatherDisplay:10.37,2013-12-04 15:33:00,
2013-12-04 09:39:00,27.7,24.6,29.74,NW,311,9.0,19.0,88,0.00,OVC,OVC,0.00,WeatherDisplay:10.37,2013-12-04 15:39:00,
2013-12-04 09:45:00,27.9,24.8,29.74,WNW,301,12.0,19.0,88,0.00,OVC,OVC,0.00,WeatherDisplay:10.37,2013-12-04 15:45:00,
2013-12-04 09:51:00,28.1,24.7,29.75,NW,304,9.0,13.0,87,0.00,OVC,OVC,0.00,WeatherDisplay:10.37,2013-12-04 15:51:00,
2013-12-04 09:57:00,28.3,24.6,29.75,NW,321,13.0,20.0,86,0.00,OVC,OVC,0.00,WeatherDisplay:10.37,2013-12-04 15:57:00,
2013-12-04 10:03:00,28.3,24.6,29.76,NW,319,6.0,6.0,86,0.00,OVC,OVC,0.00,WeatherDisplay:10.37,2013-12-04 16:03:00,
2013-12-04 10:12:00,28.4,24.4,29.77,NW,316,13.0,17.0,85,0.00,OVC,OVC,0.00,WeatherDisplay:10.37,2013-12-04 16:12:00,
2013-12-04 10:18:00,28.4,24.4,29.78,NW,312,7.0,16.0,85,0.00,OVC,OVC,0.00,WeatherDisplay:10.37,2013-12-04 16:18:00,
2013-12-04 10:24:00,28.3,24.1,29.78,WNW,295,10.0,14.0,84,0.00,OVC,OVC,0.00,WeatherDisplay:10.37,2013-12-04 16:24:00,
2013-12-04 10:30:00,28.1,23.9,29.78,WNW,288,9.0,16.0,84,0.00,OVC,OVC,0.00,WeatherDisplay:10.37,2013-12-04 16:30:00,
2013-12-04 10:36:00,28.4,23.9,29.78,NW,308,12.0,17.0,83,0.00,OVC,OVC,0.00,WeatherDisplay:10.37,2013-12-04 16:36:00,
2013-12-04 10:42:00,28.7,24.2,29.79,WNW,299,10.0,14.0,83,0.00,OVC,OVC,0.00,WeatherDisplay:10.37,2013-12-04 16:42:00,
2013-12-04 10:48:00,28.8,24.2,29.79,WNW,302,13.0,16.0,83,0.00,OVC,OVC,0.00,WeatherDisplay:10.37,2013-12-04 16:48:00,
2013-12-04 10:54:00,28.3,24.3,29.79,NW,306,16.0,21.0,85,0.00,OVC,OVC,0.00,WeatherDisplay:10.37,2013-12-04 16:54:00,
2013-12-04 11:00:00,27.9,23.9,29.79,NW,321,15.0,21.0,85,0.00,OVC,OVC,0.00,WeatherDisplay:10.37,2013-12-04 17:00:00,
2013-12-04 11:06:00,28.3,23.8,29.79,NNW,329,9.0,13.0,83,0.00,OVC,OVC,0.00,WeatherDisplay:10.37,2013-12-04 17:06:00,
2013-12-04 11:12:00,28.1,23.3,29.79,WNW,298,13.0,17.0,82,0.00,OVC,OVC,0.00,WeatherDisplay:10.37,2013-12-04 17:12:00,
2013-12-04 11:18:00,28.3,23.5,29.80,NW,305,10.0,18.0,82,0.00,OVC,OVC,0.00,WeatherDisplay:10.37,2013-12-04 17:18:00,
2013-12-04 11:24:00,28.6,23.5,29.79,WNW,292,13.0,23.0,81,0.00,OVC,OVC,0.00,WeatherDisplay:10.37,2013-12-04 17:24:00,
2013-12-04 11:30:00,28.6,22.9,29.78,West,277,7.0,13.0,79,0.00,OVC,OVC,0.00,WeatherDisplay:10.37,2013-12-04 17:30:00,
2013-12-04 11:36:00,28.6,23.5,29.78,NW,314,10.0,15.0,81,0.00,OVC,OVC,0.00,WeatherDisplay:10.37,2013-12-04 17:36:00,
2013-12-04 11:42:00,28.3,23.5,29.79,NW,326,12.0,14.0,82,0.00,OVC,OVC,0.00,WeatherDisplay:10.37,2013-12-04 17:42:00,
2013-12-04 11:48:00,27.7,22.9,29.79,NW,305,13.0,17.0,82,0.00,OVC,OVC,0.00,WeatherDisplay:10.37,2013-12-04 17:48:00,
2013-12-04 11:54:00,27.5,22.7,29.79,NW,312,15.0,20.0,82,0.00,OVC,OVC,0.00,WeatherDisplay:10.37,2013-12-04 17:54:00,
2013-12-04 12:00:00,27.4,22.6,29.79,NW,311,13.0,25.0,82,0.00,OVC,OVC,0.00,WeatherDisplay:10.37,2013-12-04 18:00:00,
2013-12-04 12:06:00,28.1,23.3,29.80,NW,311,6.0,18.0,82,0.00,OVC,OVC,0.00,WeatherDisplay:10.37,2013-12-04 18:06:00,
2013-12-04 12:12:00,27.8,23.1,29.80,WNW,297,7.0,13.0,82,0.00,OVC,OVC,0.00,WeatherDisplay:10.37,2013-12-04 18:12:00,
2013-12-04 12:18:00,27.7,22.0,29.80,WNW,290,9.0,13.0,79,0.00,OVC,OVC,0.00,WeatherDisplay:10.37,2013-12-04 18:18:00,
2013-12-04 12:24:00,28.2,22.2,29.80,WNW,295,10.0,21.0,78,0.00,OVC,OVC,0.00,WeatherDisplay:10.37,2013-12-04 18:24:00,
2013-12-04 12:30:00,27.9,21.9,29.80,WNW,303,10.0,18.0,78,0.00,OVC,OVC,0.00,WeatherDisplay:10.37,2013-12-04 18:30:00,
2013-12-04 12:36:00,27.9,21.9,29.80,NW,306,14.0,20.0,78,0.00,OVC,OVC,0.00,WeatherDisplay:10.37,2013-12-04 18:36:00,
2013-12-04 12:42:00,27.9,21.9,29.80,WNW,291,12.0,17.0,78,0.00,OVC,OVC,0.00,WeatherDisplay:10.37,2013-12-04 18:42:00,
2013-12-04 12:48:00,27.7,21.7,29.80,NW,307,15.0,21.0,78,0.00,OVC,OVC,0.00,WeatherDisplay:10.37,2013-12-04 18:48:00,
2013-12-04 12:54:00,28.1,21.8,29.80,WNW,298,8.0,14.0,77,0.00,OVC,OVC,0.00,WeatherDisplay:10.37,2013-12-04 18:54:00,
2013-12-04 13:00:00,27.9,21.3,29.80,WNW,295,16.0,21.0,76,0.00,OVC,OVC,0.00,WeatherDisplay:10.37,2013-12-04 19:00:00,
2013-12-04 13:06:00,27.9,21.4,29.81,WNW,302,15.0,19.0,76,0.00,OVC,OVC,0.00,WeatherDisplay:10.37,2013-12-04 19:06:00,
2013-12-04 13:12:00,28.4,21.8,29.81,NW,322,9.0,15.0,76,0.00,OVC,OVC,0.00,WeatherDisplay:10.37,2013-12-04 19:12:00,
2013-12-04 13:18:00,28.4,21.8,29.80,NNW,336,12.0,12.0,76,0.00,OVC,OVC,0.00,WeatherDisplay:10.37,2013-12-04 19:18:00,
2013-12-04 13:24:00,28.3,22.1,29.80,NW,324,12.0,15.0,77,0.00,OVC,OVC,0.00,WeatherDisplay:10.37,2013-12-04 19:24:00,
2013-12-04 13:30:00,28.3,21.7,29.80,NW,312,8.0,13.0,76,0.00,OVC,OVC,0.00,WeatherDisplay:10.37,2013-12-04 19:30:00,
2013-12-04 13:36:00,28.1,21.5,29.80,NW,310,12.0,16.0,76,0.00,OVC,OVC,0.00,WeatherDisplay:10.37,2013-12-04 19:36:00,
2013-12-04 13:42:00,27.7,21.1,29.79,NW,314,7.0,14.0,76,0.00,OVC,OVC,0.00,WeatherDisplay:10.37,2013-12-04 19:42:00,
2013-12-04 13:48:00,27.7,21.1,29.79,NW,318,12.0,18.0,76,0.00,OVC,OVC,0.00,WeatherDisplay:10.37,2013-12-04 19:48:00,
2013-12-04 13:54:00,27.5,20.9,29.80,WNW,301,8.0,13.0,76,0.00,OVC,OVC,0.00,WeatherDisplay:10.37,2013-12-04 19:54:00,
2013-12-04 14:00:00,27.6,21.0,29.80,NW,314,10.0,17.0,76,0.00,OVC,OVC,0.00,WeatherDisplay:10.37,2013-12-04 20:00:00,
2013-12-04 14:06:00,27.5,21.2,29.80,NW,321,10.0,22.0,77,0.00,OVC,OVC,0.00,WeatherDisplay:10.37,2013-12-04 20:06:00,
2013-12-04 14:12:00,27.5,21.2,29.80,NW,307,9.0,14.0,77,0.00,OVC,OVC,0.00,WeatherDisplay:10.37,2013-12-04 20:12:00,
2013-12-04 14:18:00,27.2,21.0,29.81,NW,306,13.0,17.0,77,0.00,OVC,OVC,0.00,WeatherDisplay:10.37,2013-12-04 20:18:00,
2013-12-04 14:24:00,27.2,20.6,29.81,NW,311,9.0,14.0,76,0.00,OVC,OVC,0.00,WeatherDisplay:10.37,2013-12-04 20:24:00,
2013-12-04 14:30:00,26.8,20.2,29.81,NW,320,12.0,18.0,76,0.00,OVC,OVC,0.00,WeatherDisplay:10.37,2013-12-04 20:30:00,
2013-12-04 14:36:00,27.2,20.3,29.81,NNE,32,8.0,10.0,75,0.00,OVC,OVC,0.00,WeatherDisplay:10.37,2013-12-04 20:36:00,
2013-12-04 14:42:00,27.0,20.1,29.81,WNW,298,7.0,14.0,75,0.00,OVC,OVC,0.00,WeatherDisplay:10.37,2013-12-04 20:42:00,
2013-12-04 14:48:00,27.0,19.8,29.81,WNW,302,9.0,14.0,74,0.00,OVC,OVC,0.00,WeatherDisplay:10.37,2013-12-04 20:48:00,
2013-12-04 14:54:00,27.2,20.0,29.81,WNW,303,8.0,16.0,74,0.00,OVC,OVC,0.00,WeatherDisplay:10.37,2013-12-04 20:54:00,
2013-12-04 15:00:00,27.2,20.0,29.81,NW,317,10.0,13.0,74,0.00,OVC,OVC,0.00,WeatherDisplay:10.37,2013-12-04 21:00:00,
2013-12-04 15:06:00,27.0,19.8,29.82,NW,306,7.0,13.0,74,0.00,OVC,OVC,0.00,WeatherDisplay:10.37,2013-12-04 21:06:00,
2013-12-04 15:12:00,26.7,19.5,29.82,WNW,298,10.0,13.0,74,0.00,OVC,OVC,0.00,WeatherDisplay:10.37,2013-12-04 21:12:00,
2013-12-04 15:18:00,26.2,19.0,29.82,NW,308,17.0,21.0,74,0.00,OVC,OVC,0.00,WeatherDisplay:10.37,2013-12-04 21:18:00,
2013-12-04 15:24:00,25.9,19.0,29.82,NW,310,12.0,16.0,75,0.00,OVC,OVC,0.00,WeatherDisplay:10.37,2013-12-04 21:24:00,
2013-12-04 15:30:00,26.3,19.4,29.84,NW,310,9.0,13.0,75,0.00,OVC,OVC,0.00,WeatherDisplay:10.37,2013-12-04 21:30:00,
2013-12-04 15:36:00,26.3,19.1,29.84,WNW,291,9.0,17.0,74,0.00,OVC,OVC,0.00,WeatherDisplay:10.37,2013-12-04 21:36:00,
2013-12-04 15:42:00,26.8,19.6,29.85,West,273,8.0,12.0,74,0.00,OVC,OVC,0.00,WeatherDisplay:10.37,2013-12-04 21:42:00,
2013-12-04 15:48:00,26.5,19.0,29.85,WNW,301,8.0,20.0,73,0.00,OVC,OVC,0.00,WeatherDisplay:10.37,2013-12-04 21:48:00,
2013-12-04 15:54:00,26.5,19.0,29.86,NW,315,10.0,20.0,73,0.00,OVC,OVC,0.00,WeatherDisplay:10.37,2013-12-04 21:54:00,
2013-12-04 16:00:00,26.6,19.1,29.86,NW,323,7.0,10.0,73,0.00,OVC,OVC,0.00,WeatherDisplay:10.37,2013-12-04 22:00:00,
2013-12-04 16:06:00,26.5,19.0,29.86,NW,307,12.0,16.0,73,0.00,OVC,OVC,0.00,WeatherDisplay:10.37,2013-12-04 22:06:00,
2013-12-04 16:12:00,26.5,19.0,29.86,WNW,302,9.0,13.0,73,0.00,OVC,OVC,0.00,WeatherDisplay:10.37,2013-12-04 22:12:00,
2013-12-04 16:18:00,26.5,19.0,29.86,NW,308,13.0,19.0,73,0.00,OVC,OVC,0.00,WeatherDisplay:10.37,2013-12-04 22:18:00,
2013-12-04 16:24:00,26.5,19.3,29.86,NW,309,7.0,14.0,74,0.00,OVC,OVC,0.00,WeatherDisplay:10.37,2013-12-04 22:24:00,
2013-12-04 16:30:00,26.5,19.3,29.88,NW,307,8.0,13.0,74,0.00,OVC,OVC,0.00,WeatherDisplay:10.37,2013-12-04 22:30:00,
2013-12-04 16:36:00,26.5,19.3,29.88,WNW,300,5.0,13.0,74,0.00,OVC,OVC,0.00,WeatherDisplay:10.37,2013-12-04 22:36:00,
2013-12-04 16:42:00,26.3,19.4,29.88,NW,325,8.0,12.0,75,0.00,OVC,OVC,0.00,WeatherDisplay:10.37,2013-12-04 22:42:00,
2013-12-04 16:48:00,26.1,19.2,29.88,NW,318,8.0,16.0,75,0.00,OVC,OVC,0.00,WeatherDisplay:10.37,2013-12-04 22:48:00,
2013-12-04 16:54:00,26.1,19.2,29.88,NNW,336,7.0,8.0,75,0.00,OVC,OVC,0.00,WeatherDisplay:10.37,2013-12-04 22:54:00,
2013-12-04 17:00:00,25.9,19.0,29.88,WNW,303,6.0,11.0,75,0.00,OVC,OVC,0.00,WeatherDisplay:10.37,2013-12-04 23:00:00,
2013-12-04 17:06:00,25.7,18.5,29.90,WNW,301,8.0,14.0,74,0.00,BKN,BKN,0.00,WeatherDisplay:10.37,2013-12-04 23:06:00,
2013-12-04 17:12:00,25.6,18.4,29.90,NW,320,7.0,14.0,74,0.00,BKN,BKN,0.00,WeatherDisplay:10.37,2013-12-04 23:12:00,
2013-12-04 17:18:00,25.4,18.2,29.90,WNW,298,9.0,12.0,74,0.00,BKN,BKN,0.00,WeatherDisplay:10.37,2013-12-04 23:18:00,
2013-12-04 17:24:00,25.4,18.2,29.90,WNW,296,7.0,11.0,74,0.00,BKN,BKN,0.00,WeatherDisplay:10.37,2013-12-04 23:24:00,
2013-12-04 17:30:00,25.2,18.0,29.90,WNW,303,5.0,10.0,74,0.00,BKN,BKN,0.00,WeatherDisplay:10.37,2013-12-04 23:30:00,
2013-12-04 17:36:00,25.0,17.8,29.90,NW,311,6.0,13.0,74,0.00,BKN,BKN,0.00,WeatherDisplay:10.37,2013-12-04 23:36:00,
2013-12-04 17:42:00,25.0,17.8,29.92,West,266,7.0,8.0,74,0.00,BKN,BKN,0.00,WeatherDisplay:10.37,2013-12-04 23:42:00,
2013-12-04 17:48:00,24.8,17.6,29.91,WNW,301,5.0,7.0,74,0.00,BKN,BKN,0.00,WeatherDisplay:10.37,2013-12-04 23:48:00,
2013-12-04 17:54:00,24.8,17.6,29.91,NW,306,6.0,10.0,74,0.00,BKN,BKN,0.00,WeatherDisplay:10.37,2013-12-04 23:54:00,
2013-12-04 18:00:00,24.8,17.6,29.91,NW,325,5.0,6.0,74,0.00,BKN,BKN,0.00,WeatherDisplay:10.37,2013-12-05 00:00:00,
2013-12-04 18:06:00,24.8,17.3,29.92,NW,309,6.0,8.0,73,0.00,BKN,BKN,0.00,WeatherDisplay:10.37,2013-12-05 00:06:00,
2013-12-04 18:12:00,24.8,17.3,29.92,WNW,297,5.0,9.0,73,0.00,BKN,BKN,0.00,WeatherDisplay:10.37,2013-12-05 00:12:00,
2013-12-04 18:18:00,24.8,17.3,29.93,NW,322,5.0,7.0,73,0.00,BKN,BKN,0.00,WeatherDisplay:10.37,2013-12-05 00:18:00,
2013-12-04 18:24:00,24.8,17.3,29.93,WNW,300,6.0,8.0,73,0.00,BKN,BKN,0.00,WeatherDisplay:10.37,2013-12-05 00:24:00,
2013-12-04 18:30:00,24.8,17.3,29.94,WNW,288,6.0,8.0,73,0.00,BKN,BKN,0.00,WeatherDisplay:10.37,2013-12-05 00:30:00,
2013-12-04 18:36:00,24.8,17.3,29.94,WNW,288,6.0,9.0,73,0.00,BKN,BKN,0.00,WeatherDisplay:10.37,2013-12-05 00:36:00,
2013-12-04 18:42:00,24.7,17.2,29.95,NW,307,6.0,9.0,73,0.00,BKN,BKN,0.00,WeatherDisplay:10.37,2013-12-05 00:42:00,
2013-12-04 18:48:00,24.7,17.2,29.95,NW,312,7.0,12.0,73,0.00,BKN,BKN,0.00,WeatherDisplay:10.37,2013-12-05 00:48:00,
2013-12-04 18:54:00,24.6,16.8,29.95,WNW,303,7.0,13.0,72,0.00,BKN,BKN,0.00,WeatherDisplay:10.37,2013-12-05 00:54:00,
2013-12-04 19:00:00,24.5,16.7,29.95,NW,305,5.0,8.0,72,0.00,BKN,BKN,0.00,WeatherDisplay:10.37,2013-12-05 01:00:00,
2013-12-04 19:06:00,24.5,17.0,29.96,WNW,297,3.0,5.0,73,0.00,BKN,BKN,0.00,WeatherDisplay:10.37,2013-12-05 01:06:00,
2013-12-04 19:12:00,24.5,17.0,29.96,NW,315,5.0,7.0,73,0.00,BKN,BKN,0.00,WeatherDisplay:10.37,2013-12-05 01:12:00,
2013-12-04 19:18:00,24.5,16.4,29.95,NW,317,5.0,8.0,71,0.00,BKN,BKN,0.00,WeatherDisplay:10.37,2013-12-05 01:18:00,
2013-12-04 19:24:00,24.5,16.4,29.95,WNW,299,6.0,8.0,71,0.00,BKN,BKN,0.00,WeatherDisplay:10.37,2013-12-05 01:24:00,
2013-12-04 19:30:00,24.3,16.2,29.97,WNW,297,5.0,8.0,71,0.00,BKN,BKN,0.00,WeatherDisplay:10.37,2013-12-05 01:30:00,
2013-12-04 19:36:00,24.3,16.2,29.97,NW,306,5.0,12.0,71,0.00,BKN,BKN,0.00,WeatherDisplay:10.37,2013-12-05 01:36:00,
2013-12-04 19:42:00,24.3,16.2,29.96,NNW,337,6.0,10.0,71,0.00,BKN,BKN,0.00,WeatherDisplay:10.37,2013-12-05 01:42:00,
2013-12-04 19:48:00,24.3,16.5,29.96,NNE,17,5.0,7.0,72,0.00,BKN,BKN,0.00,WeatherDisplay:10.37,2013-12-05 01:48:00,
2013-12-04 19:54:00,24.1,16.3,29.97,WNW,292,5.0,6.0,72,0.00,BKN,BKN,0.00,WeatherDisplay:10.37,2013-12-05 01:54:00,
2013-12-04 20:00:00,24.1,16.3,29.97,NNW,335,5.0,6.0,72,0.00,BKN,BKN,0.00,WeatherDisplay:10.37,2013-12-05 02:00:00,
2013-12-04 20:06:00,24.2,16.5,29.96,West,281,3.0,8.0,72,0.00,BKN,BKN,0.00,WeatherDisplay:10.37,2013-12-05 02:06:00,
2013-12-04 20:12:00,24.1,16.3,29.97,WNW,300,5.0,7.0,72,0.00,BKN,BKN,0.00,WeatherDisplay:10.37,2013-12-05 02:12:00,
2013-12-04 20:18:00,24.1,16.3,29.98,NNW,343,3.0,4.0,72,0.00,BKN,BKN,0.00,WeatherDisplay:10.37,2013-12-05 02:18:00,
2013-12-04 20:24:00,24.1,16.3,29.98,NW,313,3.0,6.0,72,0.00,BKN,BKN,0.00,WeatherDisplay:10.37,2013-12-05 02:24:00,
2013-12-04 20:30:00,24.1,16.3,29.99,NNW,330,5.0,8.0,72,0.00,BKN,BKN,0.00,WeatherDisplay:10.37,2013-12-05 02:30:00,
2013-12-04 20:36:00,24.1,16.4,29.98,NW,325,3.0,8.0,72,0.00,BKN,BKN,0.00,WeatherDisplay:10.37,2013-12-05 02:36:00,
2013-12-04 20:42:00,24.3,16.2,29.98,NW,307,6.0,9.0,71,0.00,BKN,BKN,0.00,WeatherDisplay:10.37,2013-12-05 02:42:00,
2013-12-04 20:48:00,24.3,16.2,29.98,WNW,292,5.0,8.0,71,0.00,BKN,BKN,0.00,WeatherDisplay:10.37,2013-12-05 02:48:00,
2013-12-04 20:54:00,24.3,15.9,29.99,WNW,290,7.0,9.0,70,0.00,BKN,BKN,0.00,WeatherDisplay:10.37,2013-12-05 02:54:00,
2013-12-04 21:00:00,24.3,15.9,29.99,NW,315,6.0,8.0,70,0.00,BKN,BKN,0.00,WeatherDisplay:10.37,2013-12-05 03:00:00,
2013-12-04 21:06:00,24.3,15.5,30.00,WNW,303,7.0,10.0,69,0.00,OVC,OVC,0.00,WeatherDisplay:10.37,2013-12-05 03:06:00,
2013-12-04 21:12:00,24.5,15.7,30.00,WNW,301,9.0,12.0,69,0.00,OVC,OVC,0.00,WeatherDisplay:10.37,2013-12-05 03:12:00,
2013-12-04 21:18:00,24.5,15.4,30.01,NW,314,6.0,9.0,68,0.00,OVC,OVC,0.00,WeatherDisplay:10.37,2013-12-05 03:18:00,
2013-12-04 21:24:00,24.5,15.1,30.01,NW,318,9.0,12.0,67,0.00,OVC,OVC,0.00,WeatherDisplay:10.37,2013-12-05 03:24:00,
2013-12-04 21:30:00,24.7,14.2,30.03,WNW,302,13.0,17.0,64,0.00,OVC,OVC,0.00,WeatherDisplay:10.37,2013-12-05 03:30:00,
2013-12-04 21:36:00,24.7,13.5,30.03,NNW,339,8.0,14.0,62,0.00,OVC,OVC,0.00,WeatherDisplay:10.37,2013-12-05 03:36:00,
2013-12-04 21:42:00,24.5,12.9,30.04,NNW,328,8.0,12.0,61,0.00,OVC,OVC,0.00,WeatherDisplay:10.37,2013-12-05 03:42:00,
2013-12-04 21:48:00,24.5,11.4,30.04,NW,325,10.0,17.0,57,0.00,OVC,OVC,0.00,WeatherDisplay:10.37,2013-12-05 03:48:00,
2013-12-04 21:54:00,24.5,11.8,30.04,NNW,332,7.0,12.0,58,0.00,OVC,OVC,0.00,WeatherDisplay:10.37,2013-12-05 03:54:00,
2013-12-04 22:00:00,24.3,12.0,30.04,WNW,303,12.0,16.0,59,0.00,OVC,OVC,0.00,WeatherDisplay:10.37,2013-12-05 04:00:00,
2013-12-04 22:06:00,24.2,11.5,30.05,WNW,294,8.0,21.0,58,0.00,OVC,OVC,0.00,WeatherDisplay:10.37,2013-12-05 04:06:00,
2013-12-04 22:12:00,24.1,11.4,30.05,WNW,291,10.0,16.0,58,0.00,OVC,OVC,0.00,WeatherDisplay:10.37,2013-12-05 04:12:00,
2013-12-04 22:18:00,23.9,11.2,30.06,NW,309,12.0,21.0,58,0.00,OVC,OVC,0.00,WeatherDisplay:10.37,2013-12-05 04:18:00,
2013-12-04 22:24:00,23.8,10.7,30.06,WNW,300,13.0,16.0,57,0.00,OVC,OVC,0.00,WeatherDisplay:10.37,2013-12-05 04:24:00,
2013-12-04 22:30:00,23.8,10.3,30.06,NW,318,15.0,20.0,56,0.00,OVC,OVC,0.00,WeatherDisplay:10.37,2013-12-05 04:30:00,
2013-12-04 22:36:00,23.6,10.1,30.06,NNW,337,9.0,10.0,56,0.00,OVC,OVC,0.00,WeatherDisplay:10.37,2013-12-05 04:36:00,
2013-12-04 22:42:00,23.4,10.0,30.06,NW,315,13.0,16.0,56,0.00,OVC,OVC,0.00,WeatherDisplay:10.37,2013-12-05 04:42:00,
2013-12-04 22:48:00,23.2,9.4,30.07,NW,305,12.0,16.0,55,0.00,OVC,OVC,0.00,WeatherDisplay:10.37,2013-12-05 04:48:00,
2013-12-04 22:54:00,23.0,9.2,30.07,NW,315,17.0,20.0,55,0.00,OVC,OVC,0.00,WeatherDisplay:10.37,2013-12-05 04:54:00,
2013-12-04 23:00:00,22.9,9.1,30.07,NW,305,10.0,16.0,55,0.00,OVC,OVC,0.00,WeatherDisplay:10.37,2013-12-05 05:00:00,
2013-12-04 23:03:00,22.7,9.3,30.08,WNW,301,15.0,23.0,56,0.00,BKN,BKN,0.00,WeatherDisplay:10.37,2013-12-05 05:03:00,
2013-12-04 23:06:00,22.7,9.3,30.08,NW,310,13.0,17.0,56,0.00,BKN,BKN,0.00,WeatherDisplay:10.37,2013-12-05 05:06:00,
2013-12-04 23:12:00,22.7,9.3,30.08,NW,309,9.0,14.0,56,0.00,BKN,BKN,0.00,WeatherDisplay:10.37,2013-12-05 05:12:00,
2013-12-04 23:15:00,22.5,9.1,30.08,WNW,302,10.0,14.0,56,0.00,BKN,BKN,0.00,WeatherDisplay:10.37,2013-12-05 05:15:00,
2013-12-04 23:21:00,22.3,9.3,30.08,NW,309,10.0,17.0,57,0.00,BKN,BKN,0.00,WeatherDisplay:10.37,2013-12-05 05:21:00,
2013-12-04 23:24:00,22.1,9.1,30.08,NW,309,13.0,19.0,57,0.00,BKN,BKN,0.00,WeatherDisplay:10.37,2013-12-05 05:24:00,
2013-12-04 23:30:00,22.0,9.4,30.08,NNW,337,12.0,21.0,58,0.00,BKN,BKN,0.00,WeatherDisplay:10.37,2013-12-05 05:30:00,
2013-12-04 23:36:00,21.6,9.1,30.08,NW,312,16.0,25.0,58,0.00,BKN,BKN,0.00,WeatherDisplay:10.37,2013-12-05 05:36:00,
2013-12-04 23:42:00,21.6,9.0,30.09,NW,317,12.0,21.0,58,0.00,BKN,BKN,0.00,WeatherDisplay:10.37,2013-12-05 05:42:00,
2013-12-04 23:48:00,21.6,9.0,30.09,NW,311,12.0,19.0,58,0.00,BKN,BKN,0.00,WeatherDisplay:10.37,2013-12-05 05:48:00,
2013-12-04 23:54:00,21.6,9.4,30.10,NW,304,8.0,13.0,59,0.00,BKN,BKN,0.00,WeatherDisplay:10.37,2013-12-05 05:54:00,